sensor_id;sensor_type;location;lat;lon;timestamp;temperature;humidity
2855;DHT22;1435;49.472;10.940;2022-10-31T00:01:25;12.10;99.90
2855;DHT22;1435;49.472;10.940;2022-10-31T00:06:28;12.10;99.90
2855;DHT22;1435;49.472;10.940;2022-10-31T00:11:31;12.10;99.90
2855;DHT22;1435;49.472;10.940;2022-10-31T00:16:32;12.10;99.90
2855;DHT22;1435;49.472;10.940;2022-10-31T00:21:36;12.10;99.90
2855;DHT22;1435;49.472;10.940;2022-10-31T00:26:37;12.10;99.90
2855;DHT22;1435;49.472;10.940;2022-10-31T00:31:39;12.10;99.90
2855;DHT22;1435;49.472;10.940;2022-10-31T00:36:42;12.10;99.90
2855;DHT22;1435;49.472;10.940;2022-10-31T00:41:44;12.10;99.90
2855;DHT22;1435;49.472;10.940;2022-10-31T00:46:46;12.10;99.90
2855;DHT22;1435;49.472;10.940;2022-10-31T00:51:49;12.00;99.90
2855;DHT22;1435;49.472;10.940;2022-10-31T00:56:50;12.00;99.90
2855;DHT22;1435;49.472;10.940;2022-10-31T01:01:52;12.00;99.90
2855;DHT22;1435;49.472;10.940;2022-10-31T01:06:55;11.90;99.90
2855;DHT22;1435;49.472;10.940;2022-10-31T01:11:57;11.90;99.90
2855;DHT22;1435;49.472;10.940;2022-10-31T01:16:59;11.80;99.90
2855;DHT22;1435;49.472;10.940;2022-10-31T01:22:02;11.70;99.90
2855;DHT22;1435;49.472;10.940;2022-10-31T01:27:04;11.70;99.90
2855;DHT22;1435;49.472;10.940;2022-10-31T01:32:06;11.70;99.90
2855;DHT22;1435;49.472;10.940;2022-10-31T01:37:09;11.70;99.90
2855;DHT22;1435;49.472;10.940;2022-10-31T01:42:17;11.60;99.90
2855;DHT22;1435;49.472;10.940;2022-10-31T01:52:46;11.60;99.90
2855;DHT22;1435;49.472;10.940;2022-10-31T01:57:52;11.50;99.90
2855;DHT22;1435;49.472;10.940;2022-10-31T02:02:54;11.50;99.90
2855;DHT22;1435;49.472;10.940;2022-10-31T02:08:02;11.50;99.90
2855;DHT22;1435;49.472;10.940;2022-10-31T02:13:07;11.50;99.90
2855;DHT22;1435;49.472;10.940;2022-10-31T02:18:09;11.50;99.90
2855;DHT22;1435;49.472;10.940;2022-10-31T02:23:37;11.40;99.90
2855;DHT22;1435;49.472;10.940;2022-10-31T02:28:57;11.40;99.90
2855;DHT22;1435;49.472;10.940;2022-10-31T02:34:13;11.40;99.90
2855;DHT22;1435;49.472;10.940;2022-10-31T02:39:23;11.40;99.90
2855;DHT22;1435;49.472;10.940;2022-10-31T02:44:30;11.40;99.90
2855;DHT22;1435;49.472;10.940;2022-10-31T02:49:42;11.40;99.90
2855;DHT22;1435;49.472;10.940;2022-10-31T02:54:47;11.40;99.90
2855;DHT22;1435;49.472;10.940;2022-10-31T02:59:51;11.30;99.90
2855;DHT22;1435;49.472;10.940;2022-10-31T03:05:05;11.30;99.90
2855;DHT22;1435;49.472;10.940;2022-10-31T03:10:15;11.30;99.90
2855;DHT22;1435;49.472;10.940;2022-10-31T03:15:21;11.20;99.90
2855;DHT22;1435;49.472;10.940;2022-10-31T03:20:30;11.10;99.90
2855;DHT22;1435;49.472;10.940;2022-10-31T03:25:34;11.10;99.90
2855;DHT22;1435;49.472;10.940;2022-10-31T03:30:39;11.00;99.90
2855;DHT22;1435;49.472;10.940;2022-10-31T03:35:47;10.90;99.90
2855;DHT22;1435;49.472;10.940;2022-10-31T03:40:51;10.80;99.90
2855;DHT22;1435;49.472;10.940;2022-10-31T03:45:56;10.80;99.90
2855;DHT22;1435;49.472;10.940;2022-10-31T03:51:06;10.70;99.90
2855;DHT22;1435;49.472;10.940;2022-10-31T03:56:12;10.70;99.90
2855;DHT22;1435;49.472;10.940;2022-10-31T04:01:19;10.70;99.90
2855;DHT22;1435;49.472;10.940;2022-10-31T04:06:24;10.70;99.90
2855;DHT22;1435;49.472;10.940;2022-10-31T04:11:30;10.70;99.90
2855;DHT22;1435;49.472;10.940;2022-10-31T04:16:33;10.70;99.90
2855;DHT22;1435;49.472;10.940;2022-10-31T04:21:36;10.70;99.90
2855;DHT22;1435;49.472;10.940;2022-10-31T04:26:38;10.70;99.90
2855;DHT22;1435;49.472;10.940;2022-10-31T04:31:40;10.70;99.90
2855;DHT22;1435;49.472;10.940;2022-10-31T04:36:43;10.70;99.90
2855;DHT22;1435;49.472;10.940;2022-10-31T04:41:45;10.70;99.90
2855;DHT22;1435;49.472;10.940;2022-10-31T04:46:46;10.70;99.90
2855;DHT22;1435;49.472;10.940;2022-10-31T04:51:49;10.70;99.90
2855;DHT22;1435;49.472;10.940;2022-10-31T04:56:51;10.70;99.90
2855;DHT22;1435;49.472;10.940;2022-10-31T05:01:53;10.60;99.90
2855;DHT22;1435;49.472;10.940;2022-10-31T05:06:56;10.60;99.90
2855;DHT22;1435;49.472;10.940;2022-10-31T05:11:58;10.60;99.90
2855;DHT22;1435;49.472;10.940;2022-10-31T05:17:01;10.60;99.90
2855;DHT22;1435;49.472;10.940;2022-10-31T05:22:04;10.60;99.90
2855;DHT22;1435;49.472;10.940;2022-10-31T05:27:05;10.60;99.90
2855;DHT22;1435;49.472;10.940;2022-10-31T05:32:07;10.60;99.90
2855;DHT22;1435;49.472;10.940;2022-10-31T05:37:10;10.60;99.90
2855;DHT22;1435;49.472;10.940;2022-10-31T05:42:12;10.70;99.90
2855;DHT22;1435;49.472;10.940;2022-10-31T05:47:13;10.70;99.90
2855;DHT22;1435;49.472;10.940;2022-10-31T05:52:17;10.70;99.90
2855;DHT22;1435;49.472;10.940;2022-10-31T05:57:19;10.70;99.90
2855;DHT22;1435;49.472;10.940;2022-10-31T06:02:21;10.70;99.90
2855;DHT22;1435;49.472;10.940;2022-10-31T06:07:24;10.70;99.90
2855;DHT22;1435;49.472;10.940;2022-10-31T06:12:26;10.70;99.90
2855;DHT22;1435;49.472;10.940;2022-10-31T06:17:28;10.70;99.90
2855;DHT22;1435;49.472;10.940;2022-10-31T06:22:31;10.70;99.90
2855;DHT22;1435;49.472;10.940;2022-10-31T06:27:33;10.70;99.90
2855;DHT22;1435;49.472;10.940;2022-10-31T06:32:34;10.70;99.90
2855;DHT22;1435;49.472;10.940;2022-10-31T06:37:37;10.80;99.90
2855;DHT22;1435;49.472;10.940;2022-10-31T06:42:39;10.70;99.90
2855;DHT22;1435;49.472;10.940;2022-10-31T06:47:41;10.70;99.90
2855;DHT22;1435;49.472;10.940;2022-10-31T06:52:50;10.80;99.90
2855;DHT22;1435;49.472;10.940;2022-10-31T06:57:52;10.80;99.90
2855;DHT22;1435;49.472;10.940;2022-10-31T07:02:55;10.80;99.90
2855;DHT22;1435;49.472;10.940;2022-10-31T07:07:59;10.90;99.90
2855;DHT22;1435;49.472;10.940;2022-10-31T07:13:02;10.90;99.90
2855;DHT22;1435;49.472;10.940;2022-10-31T07:18:07;10.90;99.90
2855;DHT22;1435;49.472;10.940;2022-10-31T07:23:12;10.90;99.90
2855;DHT22;1435;49.472;10.940;2022-10-31T07:28:14;11.00;99.90
2855;DHT22;1435;49.472;10.940;2022-10-31T07:33:15;11.00;99.90
2855;DHT22;1435;49.472;10.940;2022-10-31T07:38:19;11.10;99.90
2855;DHT22;1435;49.472;10.940;2022-10-31T07:43:20;11.20;99.90
2855;DHT22;1435;49.472;10.940;2022-10-31T07:48:23;11.30;99.90
2855;DHT22;1435;49.472;10.940;2022-10-31T07:53:26;11.30;99.90
2855;DHT22;1435;49.472;10.940;2022-10-31T07:58:28;11.40;99.90
2855;DHT22;1435;49.472;10.940;2022-10-31T08:03:29;11.40;99.90
2855;DHT22;1435;49.472;10.940;2022-10-31T08:08:32;11.50;99.90
2855;DHT22;1435;49.472;10.940;2022-10-31T08:13:34;11.50;99.90
2855;DHT22;1435;49.472;10.940;2022-10-31T08:18:36;11.60;99.90
2855;DHT22;1435;49.472;10.940;2022-10-31T08:23:39;11.70;99.90
2855;DHT22;1435;49.472;10.940;2022-10-31T08:28:41;11.70;99.90
2855;DHT22;1435;49.472;10.940;2022-10-31T08:33:43;11.90;99.90
2855;DHT22;1435;49.472;10.940;2022-10-31T08:38:46;12.00;99.90
2855;DHT22;1435;49.472;10.940;2022-10-31T08:43:48;12.00;99.90
2855;DHT22;1435;49.472;10.940;2022-10-31T08:48:50;12.10;99.90
2855;DHT22;1435;49.472;10.940;2022-10-31T08:53:53;12.20;99.90
2855;DHT22;1435;49.472;10.940;2022-10-31T08:58:55;12.20;99.90
2855;DHT22;1435;49.472;10.940;2022-10-31T09:03:56;12.30;99.90
2855;DHT22;1435;49.472;10.940;2022-10-31T09:08:59;12.40;99.90
2855;DHT22;1435;49.472;10.940;2022-10-31T09:14:01;12.40;99.90
2855;DHT22;1435;49.472;10.940;2022-10-31T09:19:03;12.50;99.90
2855;DHT22;1435;49.472;10.940;2022-10-31T09:24:06;12.60;99.90
2855;DHT22;1435;49.472;10.940;2022-10-31T09:29:08;12.70;99.90
2855;DHT22;1435;49.472;10.940;2022-10-31T09:34:10;12.80;99.90
2855;DHT22;1435;49.472;10.940;2022-10-31T09:39:13;12.90;99.90
2855;DHT22;1435;49.472;10.940;2022-10-31T09:44:24;13.00;99.90
2855;DHT22;1435;49.472;10.940;2022-10-31T09:49:42;13.10;99.90
2855;DHT22;1435;49.472;10.940;2022-10-31T09:54:52;13.20;99.90
2855;DHT22;1435;49.472;10.940;2022-10-31T09:59:55;13.40;99.90
2855;DHT22;1435;49.472;10.940;2022-10-31T10:04:59;13.50;99.90
2855;DHT22;1435;49.472;10.940;2022-10-31T10:10:13;13.70;99.90
2855;DHT22;1435;49.472;10.940;2022-10-31T10:15:36;13.80;99.90
2855;DHT22;1435;49.472;10.940;2022-10-31T10:20:44;13.90;99.90
2855;DHT22;1435;49.472;10.940;2022-10-31T10:25:59;14.00;99.90
2855;DHT22;1435;49.472;10.940;2022-10-31T10:31:07;14.20;99.90
2855;DHT22;1435;49.472;10.940;2022-10-31T10:36:13;14.30;99.90
2855;DHT22;1435;49.472;10.940;2022-10-31T10:41:20;14.40;99.90
2855;DHT22;1435;49.472;10.940;2022-10-31T10:46:28;14.50;99.90
2855;DHT22;1435;49.472;10.940;2022-10-31T10:51:55;14.60;99.90
2855;DHT22;1435;49.472;10.940;2022-10-31T10:57:10;14.60;99.90
2855;DHT22;1435;49.472;10.940;2022-10-31T11:02:17;14.80;99.90
2855;DHT22;1435;49.472;10.940;2022-10-31T11:07:20;14.90;99.90
2855;DHT22;1435;49.472;10.940;2022-10-31T11:12:27;14.90;99.90
2855;DHT22;1435;49.472;10.940;2022-10-31T11:17:32;15.00;99.90
2855;DHT22;1435;49.472;10.940;2022-10-31T11:22:34;15.10;99.90
2855;DHT22;1435;49.472;10.940;2022-10-31T11:27:38;15.20;99.90
2855;DHT22;1435;49.472;10.940;2022-10-31T11:32:49;15.30;99.90
2855;DHT22;1435;49.472;10.940;2022-10-31T11:37:55;15.40;99.90
2855;DHT22;1435;49.472;10.940;2022-10-31T11:43:01;15.40;99.90
2855;DHT22;1435;49.472;10.940;2022-10-31T11:48:15;15.50;99.90
2855;DHT22;1435;49.472;10.940;2022-10-31T11:53:19;15.60;99.90
2855;DHT22;1435;49.472;10.940;2022-10-31T11:58:25;15.70;99.90
2855;DHT22;1435;49.472;10.940;2022-10-31T12:03:33;15.80;99.90
2855;DHT22;1435;49.472;10.940;2022-10-31T12:08:37;15.80;99.90
2855;DHT22;1435;49.472;10.940;2022-10-31T12:13:52;15.90;99.90
2855;DHT22;1435;49.472;10.940;2022-10-31T12:19:00;16.00;99.90
2855;DHT22;1435;49.472;10.940;2022-10-31T12:24:13;16.10;99.90
2855;DHT22;1435;49.472;10.940;2022-10-31T12:29:26;16.20;99.90
2855;DHT22;1435;49.472;10.940;2022-10-31T12:34:45;16.30;99.90
2855;DHT22;1435;49.472;10.940;2022-10-31T12:39:56;16.40;99.90
2855;DHT22;1435;49.472;10.940;2022-10-31T12:45:15;16.50;99.90
2855;DHT22;1435;49.472;10.940;2022-10-31T12:50:27;16.60;99.90
2855;DHT22;1435;49.472;10.940;2022-10-31T12:55:41;16.60;99.90
2855;DHT22;1435;49.472;10.940;2022-10-31T13:00:51;16.70;99.90
2855;DHT22;1435;49.472;10.940;2022-10-31T13:06:03;16.80;99.90
2855;DHT22;1435;49.472;10.940;2022-10-31T13:11:09;16.80;99.90
2855;DHT22;1435;49.472;10.940;2022-10-31T13:16:16;16.90;99.90
2855;DHT22;1435;49.472;10.940;2022-10-31T13:21:21;17.00;99.90
2855;DHT22;1435;49.472;10.940;2022-10-31T13:26:34;17.00;99.90
2855;DHT22;1435;49.472;10.940;2022-10-31T13:31:41;17.10;99.90
2855;DHT22;1435;49.472;10.940;2022-10-31T13:36:48;17.10;99.90
2855;DHT22;1435;49.472;10.940;2022-10-31T13:41:53;17.20;99.90
2855;DHT22;1435;49.472;10.940;2022-10-31T13:46:57;17.20;99.90
2855;DHT22;1435;49.472;10.940;2022-10-31T13:52:11;17.20;99.90
2855;DHT22;1435;49.472;10.940;2022-10-31T13:57:18;17.30;99.90
2855;DHT22;1435;49.472;10.940;2022-10-31T14:02:25;17.40;99.90
2855;DHT22;1435;49.472;10.940;2022-10-31T14:07:29;17.50;99.90
2855;DHT22;1435;49.472;10.940;2022-10-31T14:12:34;17.50;99.90
2855;DHT22;1435;49.472;10.940;2022-10-31T14:17:45;17.60;99.90
2855;DHT22;1435;49.472;10.940;2022-10-31T14:22:48;17.60;99.90
2855;DHT22;1435;49.472;10.940;2022-10-31T14:27:49;17.70;99.90
2855;DHT22;1435;49.472;10.940;2022-10-31T14:32:57;17.70;99.90
2855;DHT22;1435;49.472;10.940;2022-10-31T14:38:22;17.70;99.90
2855;DHT22;1435;49.472;10.940;2022-10-31T14:43:50;17.70;99.90
2855;DHT22;1435;49.472;10.940;2022-10-31T14:49:12;17.70;99.90
2855;DHT22;1435;49.472;10.940;2022-10-31T14:54:20;17.80;99.90
2855;DHT22;1435;49.472;10.940;2022-10-31T14:59:30;17.80;99.90
2855;DHT22;1435;49.472;10.940;2022-10-31T15:04:35;17.80;99.90
2855;DHT22;1435;49.472;10.940;2022-10-31T15:09:37;17.80;99.90
2855;DHT22;1435;49.472;10.940;2022-10-31T15:14:41;17.80;99.90
2855;DHT22;1435;49.472;10.940;2022-10-31T15:19:44;17.80;99.90
2855;DHT22;1435;49.472;10.940;2022-10-31T15:24:48;17.70;99.90
2855;DHT22;1435;49.472;10.940;2022-10-31T15:29:56;17.70;99.90
2855;DHT22;1435;49.472;10.940;2022-10-31T15:34:59;17.70;99.90
2855;DHT22;1435;49.472;10.940;2022-10-31T15:40:11;17.70;99.90
2855;DHT22;1435;49.472;10.940;2022-10-31T15:45:21;17.70;99.90
2855;DHT22;1435;49.472;10.940;2022-10-31T15:50:29;17.60;99.90
2855;DHT22;1435;49.472;10.940;2022-10-31T15:55:36;17.60;99.90
2855;DHT22;1435;49.472;10.940;2022-10-31T16:00:38;17.60;99.90
2855;DHT22;1435;49.472;10.940;2022-10-31T16:05:46;17.50;99.90
2855;DHT22;1435;49.472;10.940;2022-10-31T16:10:48;17.40;99.90
2855;DHT22;1435;49.472;10.940;2022-10-31T16:15:52;17.30;99.90
2855;DHT22;1435;49.472;10.940;2022-10-31T16:20:56;17.30;99.90
2855;DHT22;1435;49.472;10.940;2022-10-31T16:25:59;17.30;99.90
2855;DHT22;1435;49.472;10.940;2022-10-31T16:31:00;17.20;99.90
2855;DHT22;1435;49.472;10.940;2022-10-31T16:36:31;17.10;99.90
2855;DHT22;1435;49.472;10.940;2022-10-31T16:41:37;17.10;99.90
2855;DHT22;1435;49.472;10.940;2022-10-31T16:46:40;17.00;99.90
2855;DHT22;1435;49.472;10.940;2022-10-31T16:51:43;16.90;99.90
2855;DHT22;1435;49.472;10.940;2022-10-31T16:56:46;16.80;99.90
2855;DHT22;1435;49.472;10.940;2022-10-31T17:01:48;16.70;99.90
2855;DHT22;1435;49.472;10.940;2022-10-31T17:06:52;16.60;99.90
2855;DHT22;1435;49.472;10.940;2022-10-31T17:11:53;16.50;99.90
2855;DHT22;1435;49.472;10.940;2022-10-31T17:16:55;16.40;99.90
2855;DHT22;1435;49.472;10.940;2022-10-31T17:21:58;16.30;99.90
2855;DHT22;1435;49.472;10.940;2022-10-31T17:27:02;16.20;99.90
2855;DHT22;1435;49.472;10.940;2022-10-31T17:32:04;16.00;99.90
2855;DHT22;1435;49.472;10.940;2022-10-31T17:37:09;15.80;99.90
2855;DHT22;1435;49.472;10.940;2022-10-31T17:42:11;15.70;99.90
2855;DHT22;1435;49.472;10.940;2022-10-31T17:47:13;15.60;99.90
2855;DHT22;1435;49.472;10.940;2022-10-31T17:52:16;15.50;99.90
2855;DHT22;1435;49.472;10.940;2022-10-31T17:57:18;15.40;99.90
2855;DHT22;1435;49.472;10.940;2022-10-31T18:02:20;15.30;99.90
2855;DHT22;1435;49.472;10.940;2022-10-31T18:07:23;15.20;99.90
2855;DHT22;1435;49.472;10.940;2022-10-31T18:12:25;15.10;99.90
2855;DHT22;1435;49.472;10.940;2022-10-31T18:17:27;15.00;99.90
2855;DHT22;1435;49.472;10.940;2022-10-31T18:22:30;15.00;99.90
2855;DHT22;1435;49.472;10.940;2022-10-31T18:27:32;15.00;99.90
2855;DHT22;1435;49.472;10.940;2022-10-31T18:32:34;14.90;99.90
2855;DHT22;1435;49.472;10.940;2022-10-31T18:37:37;14.90;99.90
2855;DHT22;1435;49.472;10.940;2022-10-31T18:42:39;14.80;99.90
2855;DHT22;1435;49.472;10.940;2022-10-31T18:47:41;14.70;99.90
2855;DHT22;1435;49.472;10.940;2022-10-31T18:52:44;14.60;99.90
2855;DHT22;1435;49.472;10.940;2022-10-31T18:57:46;14.50;99.90
2855;DHT22;1435;49.472;10.940;2022-10-31T19:02:48;14.40;99.90
2855;DHT22;1435;49.472;10.940;2022-10-31T19:07:51;14.30;99.90
2855;DHT22;1435;49.472;10.940;2022-10-31T19:12:52;14.20;99.90
2855;DHT22;1435;49.472;10.940;2022-10-31T19:17:54;14.10;99.90
2855;DHT22;1435;49.472;10.940;2022-10-31T19:22:57;14.00;99.90
2855;DHT22;1435;49.472;10.940;2022-10-31T19:27:59;13.90;99.90
2855;DHT22;1435;49.472;10.940;2022-10-31T19:33:01;13.90;99.90
2855;DHT22;1435;49.472;10.940;2022-10-31T19:38:04;13.80;99.90
2855;DHT22;1435;49.472;10.940;2022-10-31T19:43:06;13.70;99.90
2855;DHT22;1435;49.472;10.940;2022-10-31T19:48:07;13.60;99.90
2855;DHT22;1435;49.472;10.940;2022-10-31T19:53:11;13.50;99.90
2855;DHT22;1435;49.472;10.940;2022-10-31T19:58:12;13.40;99.90
2855;DHT22;1435;49.472;10.940;2022-10-31T20:03:14;13.30;99.90
2855;DHT22;1435;49.472;10.940;2022-10-31T20:08:19;13.20;99.90
2855;DHT22;1435;49.472;10.940;2022-10-31T20:13:22;13.10;99.90
2855;DHT22;1435;49.472;10.940;2022-10-31T20:18:24;13.10;99.90
2855;DHT22;1435;49.472;10.940;2022-10-31T20:23:27;13.10;99.90
2855;DHT22;1435;49.472;10.940;2022-10-31T20:28:30;13.10;99.90
2855;DHT22;1435;49.472;10.940;2022-10-31T20:33:32;13.10;99.90
2855;DHT22;1435;49.472;10.940;2022-10-31T20:38:36;13.10;99.90
2855;DHT22;1435;49.472;10.940;2022-10-31T20:43:38;13.00;99.90
2855;DHT22;1435;49.472;10.940;2022-10-31T20:48:40;13.10;99.90
2855;DHT22;1435;49.472;10.940;2022-10-31T20:53:44;13.10;99.90
2855;DHT22;1435;49.472;10.940;2022-10-31T20:58:46;13.00;99.90
2855;DHT22;1435;49.472;10.940;2022-10-31T21:03:49;13.00;99.90
2855;DHT22;1435;49.472;10.940;2022-10-31T21:08:52;12.90;99.90
2855;DHT22;1435;49.472;10.940;2022-10-31T21:13:54;12.90;99.90
2855;DHT22;1435;49.472;10.940;2022-10-31T21:18:58;12.80;99.90
2855;DHT22;1435;49.472;10.940;2022-10-31T21:24:04;12.70;99.90
2855;DHT22;1435;49.472;10.940;2022-10-31T21:29:07;12.60;99.90
2855;DHT22;1435;49.472;10.940;2022-10-31T21:34:10;12.50;99.90
2855;DHT22;1435;49.472;10.940;2022-10-31T21:39:13;12.50;99.90
2855;DHT22;1435;49.472;10.940;2022-10-31T21:44:14;12.50;99.90
2855;DHT22;1435;49.472;10.940;2022-10-31T21:49:16;12.50;99.90
2855;DHT22;1435;49.472;10.940;2022-10-31T21:54:19;12.50;99.90
2855;DHT22;1435;49.472;10.940;2022-10-31T21:59:28;12.50;99.90
2855;DHT22;1435;49.472;10.940;2022-10-31T22:04:29;12.50;99.90
2855;DHT22;1435;49.472;10.940;2022-10-31T22:09:35;12.50;99.90
2855;DHT22;1435;49.472;10.940;2022-10-31T22:14:36;12.60;99.90
2855;DHT22;1435;49.472;10.940;2022-10-31T22:19:38;12.60;99.90
2855;DHT22;1435;49.472;10.940;2022-10-31T22:24:41;12.50;99.90
2855;DHT22;1435;49.472;10.940;2022-10-31T22:29:43;12.50;99.90
2855;DHT22;1435;49.472;10.940;2022-10-31T22:34:45;12.60;99.90
2855;DHT22;1435;49.472;10.940;2022-10-31T22:39:48;12.60;99.90
2855;DHT22;1435;49.472;10.940;2022-10-31T22:44:50;12.60;99.90
2855;DHT22;1435;49.472;10.940;2022-10-31T22:49:51;12.60;99.90
2855;DHT22;1435;49.472;10.940;2022-10-31T22:54:54;12.70;99.90
2855;DHT22;1435;49.472;10.940;2022-10-31T22:59:56;12.70;99.90
2855;DHT22;1435;49.472;10.940;2022-10-31T23:04:58;12.60;99.90
2855;DHT22;1435;49.472;10.940;2022-10-31T23:10:01;12.60;99.90
2855;DHT22;1435;49.472;10.940;2022-10-31T23:15:03;12.60;99.90
2855;DHT22;1435;49.472;10.940;2022-10-31T23:20:06;12.50;99.90
2855;DHT22;1435;49.472;10.940;2022-10-31T23:25:09;12.50;99.90
2855;DHT22;1435;49.472;10.940;2022-10-31T23:30:11;12.50;99.90
2855;DHT22;1435;49.472;10.940;2022-10-31T23:35:13;12.50;99.90
2855;DHT22;1435;49.472;10.940;2022-10-31T23:40:17;12.40;99.90
2855;DHT22;1435;49.472;10.940;2022-10-31T23:45:18;12.40;99.90
2855;DHT22;1435;49.472;10.940;2022-10-31T23:50:20;12.40;99.90
2855;DHT22;1435;49.472;10.940;2022-10-31T23:55:24;12.30;99.90
